Terminal Aerodrome Forecast
Issued by NWS Wilmington, OH

Current Version | Previous Version | Graphics & Text | Print | Product List | Glossary On
Versions: 1 2 3 4 5 6 7 8 9 10 11 12 13 14 15 16 17 18 19 20
000
FTUS41 KILN 241500 AAA
TAFCVG
TAF AMD
KCVG 241500Z 2415/2518 18009KT 4SM -RA BR OVC011
     FM241600 20011KT 3SM -RA BR OVC008
     FM241900 23014G22KT P6SM -SHRA OVC010
     FM242200 25020G35KT P6SM OVC018
     FM250200 24016G26KT P6SM OVC018
     FM250800 25012G20KT P6SM VCSH OVC022
     FM251300 24010KT P6SM OVC022=

USA.gov is the U.S. government's official web portal to all federal, state and local government web resources and services.